createdAt,value
2019-03-09T00:01:04.966Z,4.03
2019-03-09T00:03:33.682Z,4.63
2019-03-09T00:06:02.430Z,4.63
2019-03-09T00:08:31.083Z,4.73
2019-03-09T00:10:59.744Z,5.00
2019-03-09T00:13:28.406Z,4.47
2019-03-09T00:15:57.170Z,4.63
2019-03-09T00:18:25.978Z,4.57
2019-03-09T00:20:54.892Z,2.80
2019-03-09T00:23:40.567Z,4.70
2019-03-09T00:26:11.026Z,5.10
2019-03-09T00:28:41.452Z,4.67
2019-03-09T00:31:11.809Z,3.67
2019-03-09T00:33:41.729Z,5.17
2019-03-09T00:36:10.629Z,4.90
2019-03-09T00:38:39.406Z,5.47
2019-03-09T00:41:08.164Z,5.37
2019-03-09T00:43:36.816Z,5.07
2019-03-09T00:46:05.627Z,5.27
2019-03-09T00:48:34.514Z,5.03
2019-03-09T00:51:03.228Z,5.53
2019-03-09T00:53:32.178Z,5.70
2019-03-09T00:56:00.782Z,5.53
2019-03-09T00:58:29.508Z,5.27
2019-03-09T01:00:58.366Z,5.87
2019-03-09T01:03:26.898Z,5.97
2019-03-09T01:05:55.660Z,6.00
2019-03-09T01:08:24.444Z,5.97
2019-03-09T01:10:53.202Z,4.77
2019-03-09T01:13:21.996Z,5.30
2019-03-09T01:15:50.769Z,4.60
2019-03-09T01:18:19.474Z,4.90
2019-03-09T01:20:48.325Z,4.73
2019-03-09T01:23:17.152Z,5.20
2019-03-09T01:25:45.850Z,5.00
2019-03-09T01:28:14.861Z,5.10
2019-03-09T01:30:45.192Z,5.57
2019-03-09T01:33:13.928Z,5.13
2019-03-09T01:35:42.764Z,4.90
2019-03-09T01:38:11.531Z,5.80
2019-03-09T01:40:42.053Z,6.00
2019-03-09T01:43:10.798Z,5.63
2019-03-09T01:45:39.754Z,5.43
2019-03-09T01:48:08.681Z,5.50
2019-03-09T01:50:37.432Z,5.90
2019-03-09T01:53:06.371Z,6.50
2019-03-09T01:55:35.321Z,6.93
2019-03-09T01:58:04.136Z,6.70
2019-03-09T02:00:33.160Z,6.50
2019-03-09T02:03:34.544Z,7.23
2019-03-09T02:06:03.507Z,6.53
2019-03-09T02:08:52.944Z,6.77
2019-03-09T02:11:24.256Z,6.20
2019-03-09T02:13:54.744Z,6.10
2019-03-09T02:16:47.138Z,6.13
2019-03-09T02:19:20.548Z,5.47
2019-03-09T02:21:49.390Z,5.30
2019-03-09T02:24:28.335Z,4.67
2019-03-09T02:26:54.830Z,4.37
2019-03-09T02:29:23.801Z,3.90
2019-03-09T02:31:52.667Z,4.23
2019-03-09T02:34:28.347Z,4.03
2019-03-09T02:36:57.230Z,3.73
2019-03-09T02:39:55.941Z,4.07
2019-03-09T02:42:37.225Z,3.73
2019-03-09T02:48:01.068Z,3.53
2019-03-09T02:56:32.666Z,3.27
2019-03-09T02:59:01.459Z,3.20
2019-03-09T03:01:31.861Z,3.10
2019-03-09T03:04:02.331Z,3.33
2019-03-09T03:06:31.286Z,3.27
2019-03-09T03:09:07.289Z,3.30
2019-03-09T03:11:41.127Z,3.43
2019-03-09T03:14:10.130Z,2.57
2019-03-09T03:16:50.261Z,2.70
2019-03-09T03:19:29.096Z,3.43
2019-03-09T03:22:01.723Z,3.40
2019-03-09T03:24:39.928Z,3.53
2019-03-09T03:27:08.889Z,3.93
2019-03-09T03:29:39.419Z,3.10
2019-03-09T03:32:12.346Z,3.20
2019-03-09T03:34:43.057Z,3.60
2019-03-09T03:37:11.985Z,4.40
2019-03-09T03:39:42.476Z,3.97
2019-03-09T03:42:11.489Z,4.27
2019-03-09T03:44:55.268Z,4.63
2019-03-09T03:47:24.048Z,3.60
2019-03-09T03:49:52.858Z,4.40
2019-03-09T03:52:21.752Z,4.03
2019-03-09T03:54:50.675Z,4.03
2019-03-09T03:57:25.290Z,4.00
2019-03-09T04:00:00.597Z,4.23
2019-03-09T04:02:29.755Z,3.83
2019-03-09T04:05:20.050Z,3.47
2019-03-09T04:07:45.023Z,3.77
2019-03-09T04:10:15.398Z,4.50
2019-03-09T04:12:44.408Z,4.67
2019-03-09T04:15:15.044Z,3.67
2019-03-09T04:17:46.948Z,4.17
2019-03-09T04:20:15.749Z,4.03
2019-03-09T04:22:44.627Z,3.70
2019-03-09T04:25:17.694Z,4.13
2019-03-09T04:27:46.573Z,3.60
2019-03-09T04:30:15.303Z,3.67
2019-03-09T04:32:50.581Z,3.60
2019-03-09T04:36:06.198Z,4.30
2019-03-09T04:38:38.087Z,3.87
2019-03-09T04:41:06.933Z,3.27
2019-03-09T04:43:35.655Z,4.43
2019-03-09T04:46:07.265Z,4.53
2019-03-09T04:48:35.850Z,3.57
2019-03-09T04:51:04.794Z,4.07
2019-03-09T04:53:33.507Z,3.67
2019-03-09T04:56:02.527Z,3.10
2019-03-09T04:58:33.000Z,4.27
2019-03-09T05:01:01.717Z,3.60
2019-03-09T05:03:30.471Z,4.00
2019-03-09T05:05:59.313Z,3.20
2019-03-09T05:08:36.599Z,3.77
2019-03-09T05:11:07.775Z,4.13
2019-03-09T05:13:39.297Z,4.73
2019-03-09T05:16:07.956Z,4.27
2019-03-09T05:18:36.691Z,4.73
2019-03-09T05:21:05.620Z,3.27
2019-03-09T05:23:34.642Z,4.73
2019-03-09T05:26:06.335Z,4.57
2019-03-09T05:28:37.197Z,3.67
2019-03-09T05:31:05.994Z,4.40
2019-03-09T05:33:34.733Z,3.57
2019-03-09T05:36:03.751Z,4.07
2019-03-09T05:38:32.603Z,3.90
2019-03-09T05:41:04.325Z,4.63
2019-03-09T05:43:54.734Z,4.93
2019-03-09T05:46:23.663Z,3.93
2019-03-09T05:48:56.647Z,4.40
2019-03-09T05:51:25.233Z,4.77
2019-03-09T05:53:53.964Z,4.70
2019-03-09T05:56:22.689Z,4.80
2019-03-09T05:58:51.855Z,5.20
2019-03-09T06:01:20.655Z,4.57
2019-03-09T06:03:49.565Z,5.07
2019-03-09T06:06:18.272Z,3.87
2019-03-09T06:08:46.990Z,4.27
2019-03-09T06:11:15.677Z,4.47
2019-03-09T06:13:44.329Z,4.37
2019-03-09T06:16:12.981Z,4.13
2019-03-09T06:18:41.659Z,5.10
2019-03-09T06:21:11.745Z,5.00
2019-03-09T06:23:40.327Z,4.30
2019-03-09T06:26:09.043Z,3.97
2019-03-09T06:28:37.641Z,4.80
2019-03-09T06:31:06.283Z,4.63
2019-03-09T06:33:34.935Z,4.37
2019-03-09T06:39:04.396Z,4.87
2019-03-09T06:41:41.675Z,4.53
2019-03-09T06:44:10.284Z,4.80
2019-03-09T06:46:38.877Z,4.80
2019-03-09T06:49:09.305Z,4.93
2019-03-09T06:51:38.103Z,5.13
2019-03-09T06:54:06.825Z,4.97
2019-03-09T06:56:35.569Z,4.70
2019-03-09T06:59:04.740Z,4.87
2019-03-09T07:01:33.669Z,5.13
2019-03-09T07:04:02.943Z,5.20
2019-03-09T07:06:31.735Z,4.13
2019-03-09T07:09:00.313Z,5.40
2019-03-09T07:11:29.739Z,4.97
2019-03-09T07:14:01.459Z,4.90
2019-03-09T07:16:30.367Z,4.80
2019-03-09T07:18:58.897Z,4.93
2019-03-09T07:21:27.588Z,5.30
2019-03-09T07:23:56.379Z,5.00
2019-03-09T07:26:25.154Z,4.97
2019-03-09T07:28:53.883Z,4.87
2019-03-09T07:31:22.504Z,5.50
2019-03-09T07:33:54.223Z,5.07
2019-03-09T07:36:22.956Z,4.77
2019-03-09T07:38:51.625Z,5.37
2019-03-09T07:41:20.265Z,6.33
2019-03-09T07:43:49.262Z,5.03
2019-03-09T07:46:18.015Z,4.70
2019-03-09T07:48:46.704Z,5.13
2019-03-09T07:51:15.434Z,5.30
2019-03-09T07:53:44.032Z,5.03
2019-03-09T07:56:12.646Z,5.47
2019-03-09T07:58:41.280Z,5.50
2019-03-09T08:01:09.998Z,4.60
2019-03-09T08:03:38.700Z,5.10
2019-03-09T08:06:07.292Z,5.57
2019-03-09T08:08:35.847Z,5.40
2019-03-09T08:11:04.497Z,5.77
2019-03-09T08:13:33.189Z,5.43
2019-03-09T08:16:04.915Z,5.43
2019-03-09T08:18:33.624Z,5.23
2019-03-09T08:21:02.441Z,5.83
2019-03-09T08:23:31.205Z,5.37
2019-03-09T08:26:00.087Z,5.37
2019-03-09T08:28:28.792Z,6.43
2019-03-09T08:30:57.499Z,5.87
2019-03-09T08:33:26.230Z,5.60
2019-03-09T08:35:55.027Z,6.27
2019-03-09T08:38:23.750Z,6.00
2019-03-09T08:40:52.461Z,6.13
2019-03-09T08:43:21.201Z,6.73
2019-03-09T08:45:49.986Z,5.43
2019-03-09T08:48:18.745Z,7.63
2019-03-09T08:50:47.394Z,6.00
2019-03-09T08:53:16.087Z,5.50
2019-03-09T08:55:44.773Z,6.90
2019-03-09T08:58:13.510Z,6.23
2019-03-09T09:00:42.376Z,6.60
2019-03-09T09:03:10.913Z,6.03
2019-03-09T09:05:39.903Z,5.80
2019-03-09T09:08:08.709Z,7.07
2019-03-09T09:10:37.386Z,7.37
2019-03-09T09:13:06.145Z,6.27
2019-03-09T09:15:34.785Z,6.83
2019-03-09T09:18:03.513Z,6.93
2019-03-09T09:20:32.397Z,7.73
2019-03-09T09:23:01.146Z,6.50
2019-03-09T09:25:30.151Z,7.43
2019-03-09T09:27:58.798Z,6.50
2019-03-09T09:30:29.652Z,6.50
2019-03-09T09:32:58.767Z,6.27
2019-03-09T09:35:27.680Z,6.07
2019-03-09T09:37:56.357Z,6.60
2019-03-09T09:40:28.447Z,6.80
2019-03-09T09:42:57.285Z,6.87
2019-03-09T09:45:26.037Z,7.23
2019-03-09T09:47:58.934Z,7.57
2019-03-09T09:50:27.523Z,6.97
2019-03-09T09:52:56.218Z,8.10
2019-03-09T09:55:27.182Z,7.13
2019-03-09T09:57:55.900Z,6.70
2019-03-09T10:00:32.762Z,8.50
2019-03-09T10:03:01.370Z,6.63
2019-03-09T10:05:29.943Z,7.43
2019-03-09T10:07:58.576Z,6.73
2019-03-09T10:10:29.671Z,6.90
2019-03-09T10:12:57.846Z,7.07
2019-03-09T10:15:29.036Z,6.70
2019-03-09T10:17:57.839Z,6.90
2019-03-09T10:20:26.686Z,7.73
2019-03-09T10:23:03.782Z,6.03
2019-03-09T10:25:25.670Z,7.17
2019-03-09T10:27:54.402Z,7.80
2019-03-09T10:30:36.628Z,7.83
2019-03-09T10:33:05.327Z,7.00
2019-03-09T10:35:34.080Z,6.93
2019-03-09T10:38:05.731Z,8.90
2019-03-09T10:40:33.634Z,8.60
2019-03-09T10:43:02.287Z,7.13
2019-03-09T10:45:33.056Z,8.43
2019-03-09T10:48:01.818Z,9.85
2019-03-09T10:50:30.932Z,9.07
2019-03-09T10:56:11.636Z,8.40
2019-03-09T10:58:41.822Z,8.17
2019-03-09T11:01:10.694Z,9.30
2019-03-09T11:03:39.792Z,9.00
2019-03-09T11:06:21.765Z,9.17
2019-03-09T11:09:11.999Z,8.07
2019-03-09T11:11:46.140Z,8.80
2019-03-09T11:14:14.706Z,8.50
2019-03-09T11:16:43.270Z,8.23
2019-03-09T11:19:11.896Z,9.63
2019-03-09T11:21:40.490Z,7.87
2019-03-09T11:24:09.096Z,8.90
2019-03-09T11:26:37.696Z,8.17
2019-03-09T11:29:06.448Z,9.37
2019-03-09T11:31:35.054Z,8.40
2019-03-09T11:34:03.770Z,9.83
2019-03-09T11:36:32.492Z,8.40
2019-03-09T11:39:01.206Z,8.67
2019-03-09T11:41:30.114Z,9.37
2019-03-09T11:43:58.737Z,9.20
2019-03-09T11:46:27.326Z,9.33
2019-03-09T11:48:55.920Z,9.30
2019-03-09T11:51:24.495Z,8.80
2019-03-09T11:53:53.049Z,8.33
2019-03-09T11:56:21.790Z,8.60
2019-03-09T11:58:50.438Z,8.10
2019-03-09T12:01:19.046Z,7.57
2019-03-09T12:03:47.628Z,7.73
2019-03-09T12:06:16.203Z,7.10
2019-03-09T12:08:44.760Z,5.67
2019-03-09T12:11:13.377Z,6.90
2019-03-09T12:13:41.994Z,6.40
2019-03-09T12:16:10.763Z,5.07
2019-03-09T12:18:39.483Z,5.73
2019-03-09T12:21:08.308Z,6.27
2019-03-09T12:23:36.926Z,6.50
2019-03-09T12:26:06.168Z,6.17
2019-03-09T12:28:34.738Z,5.93
2019-03-09T12:31:04.680Z,6.40
2019-03-09T12:33:49.577Z,5.73
2019-03-09T12:36:52.770Z,6.80
2019-03-09T12:39:27.653Z,6.30
2019-03-09T12:42:34.574Z,7.03
2019-03-09T12:45:03.833Z,6.27
2019-03-09T12:47:35.880Z,7.10
2019-03-09T12:56:06.119Z,4.87
2019-03-09T12:58:59.479Z,5.97
2019-03-09T13:27:20.004Z,6.92
2019-03-09T13:29:51.426Z,5.67
2019-03-09T13:32:21.862Z,7.20
2019-03-09T13:35:19.339Z,5.90
2019-03-09T13:37:48.115Z,6.07
2019-03-09T13:43:23.769Z,6.37
2019-03-09T13:45:52.425Z,5.33
2019-03-09T13:48:22.462Z,5.77
2019-03-09T13:50:52.985Z,5.80
2019-03-09T13:53:26.135Z,6.50
2019-03-09T13:59:11.381Z,6.23
2019-03-09T14:01:37.891Z,6.30
2019-03-09T14:07:15.064Z,7.57
2019-03-09T14:10:07.210Z,7.47
2019-03-09T14:28:40.564Z,7.20
2019-03-09T14:34:48.346Z,6.73
2019-03-09T14:40:31.776Z,7.33
2019-03-09T14:43:01.563Z,6.90
2019-03-09T15:58:27.035Z,9.23
2019-03-09T16:00:45.594Z,7.90
2019-03-09T16:03:14.547Z,7.93
2019-03-09T16:18:34.898Z,7.87
2019-03-09T16:20:59.982Z,8.37
2019-03-09T16:26:27.846Z,7.87
2019-03-09T16:29:08.340Z,8.27
2019-03-09T16:31:39.240Z,8.13
2019-03-09T16:34:25.026Z,7.37
2019-03-09T16:37:01.417Z,8.00
2019-03-09T16:39:37.618Z,8.20
2019-03-09T16:42:21.900Z,7.17
2019-03-09T16:44:55.206Z,7.97
2019-03-09T16:47:25.898Z,7.53
2019-03-09T16:49:56.835Z,7.33
2019-03-09T16:52:29.316Z,7.30
2019-03-09T16:55:04.067Z,7.50
2019-03-09T17:31:06.229Z,9.60
2019-03-09T17:33:37.616Z,8.10
2019-03-09T17:36:06.527Z,8.70
2019-03-09T17:38:35.289Z,8.00
2019-03-09T17:41:04.346Z,6.67
2019-03-09T17:43:33.310Z,6.97
2019-03-09T17:46:05.530Z,8.00
2019-03-09T17:48:34.617Z,7.90
2019-03-09T17:51:03.375Z,7.37
2019-03-09T17:53:32.298Z,7.17
2019-03-09T17:56:01.180Z,7.17
2019-03-09T17:58:30.244Z,8.20
2019-03-09T18:00:59.282Z,7.00
2019-03-09T18:03:28.307Z,8.83
2019-03-09T18:05:57.227Z,7.80
2019-03-09T18:08:33.199Z,7.40
2019-03-09T18:11:08.224Z,7.50
2019-03-09T18:13:36.913Z,8.23
2019-03-09T18:16:05.762Z,7.03
2019-03-09T18:18:34.445Z,7.70
2019-03-09T18:21:03.156Z,8.63
2019-03-09T18:23:31.974Z,7.33
2019-03-09T18:26:00.638Z,8.23
2019-03-09T18:28:29.427Z,8.83
2019-03-09T18:30:58.072Z,8.43
2019-03-09T18:33:26.725Z,8.38
2019-03-09T18:35:55.396Z,8.57
2019-03-09T18:38:24.334Z,7.50
2019-03-09T18:40:54.443Z,8.60
2019-03-09T18:43:25.209Z,7.80
2019-03-09T18:45:53.974Z,9.27
2019-03-09T18:48:22.572Z,8.57
2019-03-09T18:50:51.261Z,7.47
2019-03-09T18:53:19.964Z,8.47
2019-03-09T18:55:58.605Z,8.60
2019-03-09T18:58:20.902Z,7.67
2019-03-09T19:00:49.654Z,8.40
2019-03-09T19:03:18.303Z,7.97
2019-03-09T19:05:47.040Z,7.03
2019-03-09T19:08:15.803Z,9.10
2019-03-09T19:10:44.430Z,8.00
2019-03-09T19:13:13.205Z,7.53
2019-03-09T19:15:41.893Z,7.53
2019-03-09T19:18:10.601Z,8.37
2019-03-09T19:20:39.223Z,7.33
2019-03-09T19:23:07.945Z,7.50
2019-03-09T19:25:36.584Z,6.73
2019-03-09T19:28:05.240Z,6.27
2019-03-09T19:30:33.987Z,6.40
2019-03-09T19:33:02.675Z,8.20
2019-03-09T19:35:31.259Z,6.37
2019-03-09T19:38:00.094Z,7.40
2019-03-09T19:40:28.946Z,6.27
2019-03-09T19:42:57.606Z,7.30
2019-03-09T19:45:26.344Z,6.80
2019-03-09T19:47:58.469Z,6.57
2019-03-09T19:50:28.329Z,7.00
2019-03-09T19:52:58.981Z,7.37
2019-03-09T19:55:27.548Z,7.00
2019-03-09T19:57:56.336Z,7.13
2019-03-09T20:00:24.970Z,6.73
2019-03-09T20:02:53.817Z,6.23
2019-03-09T20:05:23.693Z,7.13
2019-03-09T20:07:52.504Z,6.67
2019-03-09T20:10:31.864Z,7.27
2019-03-09T20:13:02.615Z,6.30
2019-03-09T20:15:31.558Z,6.60
2019-03-09T20:18:00.379Z,6.97
2019-03-09T20:20:29.179Z,6.37
2019-03-09T20:22:58.057Z,6.97
2019-03-09T20:25:29.028Z,6.87
2019-03-09T20:27:57.938Z,6.60
2019-03-09T20:30:26.946Z,5.50
2019-03-09T20:32:55.815Z,6.07
2019-03-09T20:35:24.486Z,7.17
2019-03-09T20:37:53.216Z,6.43
2019-03-09T20:40:21.996Z,5.63
2019-03-09T20:42:50.811Z,5.57
2019-03-09T20:45:20.599Z,6.37
2019-03-09T20:47:49.300Z,5.17
2019-03-09T20:50:19.193Z,5.73
2019-03-09T20:52:47.855Z,6.63
2019-03-09T20:55:16.568Z,6.90
2019-03-09T20:57:45.294Z,5.20
2019-03-09T21:00:21.233Z,6.27
2019-03-09T21:02:49.831Z,6.30
2019-03-09T21:05:18.484Z,6.40
2019-03-09T21:07:47.099Z,6.03
2019-03-09T21:10:19.502Z,6.60
2019-03-09T21:13:02.739Z,6.20
2019-03-09T21:15:31.411Z,6.70
2019-03-09T21:18:00.117Z,6.67
2019-03-09T21:20:28.770Z,6.43
2019-03-09T21:22:57.511Z,6.27
2019-03-09T21:25:26.248Z,6.00
2019-03-09T21:27:54.965Z,6.30
2019-03-09T21:30:23.687Z,6.17
2019-03-09T21:32:52.407Z,7.20
2019-03-09T21:35:21.114Z,6.43
2019-03-09T21:37:50.870Z,6.43
2019-03-09T21:40:19.569Z,6.57
2019-03-09T21:42:48.261Z,6.47
2019-03-09T21:45:17.156Z,6.10
2019-03-09T21:47:45.919Z,7.67
2019-03-09T21:50:18.073Z,8.00
2019-03-09T21:52:46.906Z,6.57
2019-03-09T21:55:16.419Z,6.33
2019-03-09T21:57:45.287Z,6.27
2019-03-09T22:00:18.068Z,6.40
2019-03-09T22:02:47.032Z,6.17
2019-03-09T22:05:15.921Z,7.43
2019-03-09T22:07:44.569Z,8.17
2019-03-09T22:10:14.013Z,7.20
2019-03-09T22:12:42.838Z,7.70
2019-03-09T22:15:16.184Z,7.67
2019-03-09T22:17:44.995Z,7.57
2019-03-09T22:20:14.699Z,7.83
2019-03-09T22:22:43.584Z,8.50
2019-03-09T22:25:13.281Z,7.73
2019-03-09T22:27:42.096Z,7.83
2019-03-09T22:30:15.158Z,7.40
2019-03-09T22:32:43.969Z,6.80
2019-03-09T22:35:13.705Z,7.27
2019-03-09T22:37:42.738Z,7.47
2019-03-09T22:40:14.007Z,7.63
2019-03-09T22:42:48.914Z,6.80
2019-03-09T22:45:17.640Z,8.10
2019-03-09T22:47:46.357Z,7.87
2019-03-09T22:50:18.988Z,7.93
2019-03-09T22:52:47.759Z,7.27
2019-03-09T22:55:16.683Z,7.60
2019-03-09T22:57:45.452Z,7.50
2019-03-09T23:00:25.267Z,7.93
2019-03-09T23:02:57.141Z,7.60
2019-03-09T23:05:25.463Z,7.93
2019-03-09T23:07:54.168Z,7.77
2019-03-09T23:10:26.820Z,8.23
2019-03-09T23:12:55.469Z,9.67
2019-03-09T23:15:24.131Z,9.53
2019-03-09T23:17:52.849Z,10.87
2019-03-09T23:20:21.467Z,8.60
2019-03-09T23:22:50.113Z,7.20
2019-03-09T23:25:18.827Z,8.10
2019-03-09T23:27:47.573Z,7.30
2019-03-09T23:30:23.327Z,8.17
2019-03-09T23:32:54.931Z,7.37
2019-03-09T23:35:23.588Z,8.00
2019-03-09T23:37:52.579Z,8.27
2019-03-09T23:40:23.077Z,7.87
2019-03-09T23:42:51.889Z,7.23
2019-03-09T23:45:22.928Z,7.80
2019-03-09T23:47:52.109Z,7.13
2019-03-09T23:50:21.038Z,8.20
2019-03-09T23:52:50.093Z,7.40
2019-03-09T23:55:22.621Z,7.80
2019-03-09T23:57:49.514Z,7.13
